sensor_id;sensor_type;location;lat;lon;timestamp;P1;durP1;ratioP1;P2;durP2;ratioP2
16270;SDS011;8243;49.048;8.396;2024-02-14T00:00:09;5.93;;;3.57;;
16270;SDS011;8243;49.048;8.396;2024-02-14T00:02:38;5.43;;;3.80;;
16270;SDS011;8243;49.048;8.396;2024-02-14T00:05:06;7.40;;;3.57;;
16270;SDS011;8243;49.048;8.396;2024-02-14T00:07:32;9.00;;;3.83;;
16270;SDS011;8243;49.048;8.396;2024-02-14T00:09:58;4.27;;;3.50;;
16270;SDS011;8243;49.048;8.396;2024-02-14T00:12:23;5.20;;;3.27;;
16270;SDS011;8243;49.048;8.396;2024-02-14T00:14:49;3.97;;;3.03;;
16270;SDS011;8243;49.048;8.396;2024-02-14T00:17:15;6.03;;;3.47;;
16270;SDS011;8243;49.048;8.396;2024-02-14T00:19:43;5.17;;;3.20;;
16270;SDS011;8243;49.048;8.396;2024-02-14T00:22:08;3.77;;;3.20;;
16270;SDS011;8243;49.048;8.396;2024-02-14T00:24:34;5.07;;;3.57;;
16270;SDS011;8243;49.048;8.396;2024-02-14T00:27:01;6.17;;;3.33;;
16270;SDS011;8243;49.048;8.396;2024-02-14T00:29:28;6.43;;;3.17;;
16270;SDS011;8243;49.048;8.396;2024-02-14T00:31:54;5.57;;;3.37;;
16270;SDS011;8243;49.048;8.396;2024-02-14T00:34:20;5.67;;;3.57;;
16270;SDS011;8243;49.048;8.396;2024-02-14T00:36:46;4.30;;;3.20;;
16270;SDS011;8243;49.048;8.396;2024-02-14T00:39:12;6.53;;;3.90;;
16270;SDS011;8243;49.048;8.396;2024-02-14T00:41:37;9.00;;;4.20;;
16270;SDS011;8243;49.048;8.396;2024-02-14T00:44:03;5.83;;;3.73;;
16270;SDS011;8243;49.048;8.396;2024-02-14T00:46:29;5.20;;;3.90;;
16270;SDS011;8243;49.048;8.396;2024-02-14T00:48:55;9.77;;;3.97;;
16270;SDS011;8243;49.048;8.396;2024-02-14T00:51:21;5.10;;;3.67;;
16270;SDS011;8243;49.048;8.396;2024-02-14T00:53:47;5.30;;;3.90;;
16270;SDS011;8243;49.048;8.396;2024-02-14T00:56:12;7.23;;;4.00;;
16270;SDS011;8243;49.048;8.396;2024-02-14T00:58:38;5.47;;;3.93;;
16270;SDS011;8243;49.048;8.396;2024-02-14T01:01:04;6.77;;;3.97;;
16270;SDS011;8243;49.048;8.396;2024-02-14T01:03:30;7.43;;;4.00;;
16270;SDS011;8243;49.048;8.396;2024-02-14T01:05:56;4.77;;;3.87;;
16270;SDS011;8243;49.048;8.396;2024-02-14T01:08:21;5.10;;;3.63;;
16270;SDS011;8243;49.048;8.396;2024-02-14T01:10:47;4.97;;;3.50;;
16270;SDS011;8243;49.048;8.396;2024-02-14T01:13:14;4.50;;;3.33;;
16270;SDS011;8243;49.048;8.396;2024-02-14T01:15:40;4.23;;;3.20;;
16270;SDS011;8243;49.048;8.396;2024-02-14T01:18:06;7.30;;;3.80;;
16270;SDS011;8243;49.048;8.396;2024-02-14T01:20:32;6.23;;;3.87;;
16270;SDS011;8243;49.048;8.396;2024-02-14T01:22:57;6.53;;;3.23;;
16270;SDS011;8243;49.048;8.396;2024-02-14T01:25:24;4.20;;;3.13;;
16270;SDS011;8243;49.048;8.396;2024-02-14T01:27:50;5.53;;;3.20;;
16270;SDS011;8243;49.048;8.396;2024-02-14T01:30:17;5.17;;;3.17;;
16270;SDS011;8243;49.048;8.396;2024-02-14T01:32:44;4.77;;;3.10;;
16270;SDS011;8243;49.048;8.396;2024-02-14T01:35:09;4.23;;;2.70;;
16270;SDS011;8243;49.048;8.396;2024-02-14T01:37:35;4.67;;;3.30;;
16270;SDS011;8243;49.048;8.396;2024-02-14T01:40:00;5.17;;;2.87;;
16270;SDS011;8243;49.048;8.396;2024-02-14T01:42:26;4.57;;;2.93;;
16270;SDS011;8243;49.048;8.396;2024-02-14T01:44:52;4.53;;;3.03;;
16270;SDS011;8243;49.048;8.396;2024-02-14T01:47:19;5.10;;;3.30;;
16270;SDS011;8243;49.048;8.396;2024-02-14T01:49:45;4.53;;;2.97;;
16270;SDS011;8243;49.048;8.396;2024-02-14T01:52:12;5.57;;;3.23;;
16270;SDS011;8243;49.048;8.396;2024-02-14T01:54:38;6.37;;;3.67;;
16270;SDS011;8243;49.048;8.396;2024-02-14T01:57:05;6.60;;;3.60;;
16270;SDS011;8243;49.048;8.396;2024-02-14T01:59:31;3.83;;;3.20;;
16270;SDS011;8243;49.048;8.396;2024-02-14T02:01:59;6.03;;;3.20;;
16270;SDS011;8243;49.048;8.396;2024-02-14T02:04:25;4.47;;;2.80;;
16270;SDS011;8243;49.048;8.396;2024-02-14T02:06:50;3.80;;;2.70;;
16270;SDS011;8243;49.048;8.396;2024-02-14T02:09:21;4.40;;;2.70;;
16270;SDS011;8243;49.048;8.396;2024-02-14T02:11:51;5.10;;;3.37;;
16270;SDS011;8243;49.048;8.396;2024-02-14T02:14:21;3.73;;;3.33;;
16270;SDS011;8243;49.048;8.396;2024-02-14T02:16:47;4.23;;;2.80;;
16270;SDS011;8243;49.048;8.396;2024-02-14T02:19:14;7.77;;;3.13;;
16270;SDS011;8243;49.048;8.396;2024-02-14T02:21:41;3.57;;;2.77;;
16270;SDS011;8243;49.048;8.396;2024-02-14T02:24:09;3.83;;;2.60;;
16270;SDS011;8243;49.048;8.396;2024-02-14T02:26:34;4.70;;;2.73;;
16270;SDS011;8243;49.048;8.396;2024-02-14T02:29:00;6.10;;;3.00;;
16270;SDS011;8243;49.048;8.396;2024-02-14T02:31:25;4.97;;;2.97;;
16270;SDS011;8243;49.048;8.396;2024-02-14T02:33:51;3.70;;;2.57;;
16270;SDS011;8243;49.048;8.396;2024-02-14T02:36:17;5.27;;;2.97;;
16270;SDS011;8243;49.048;8.396;2024-02-14T02:38:43;4.67;;;2.90;;
16270;SDS011;8243;49.048;8.396;2024-02-14T02:41:09;8.27;;;2.87;;
16270;SDS011;8243;49.048;8.396;2024-02-14T02:43:34;4.87;;;2.83;;
16270;SDS011;8243;49.048;8.396;2024-02-14T02:46:00;4.53;;;2.90;;
16270;SDS011;8243;49.048;8.396;2024-02-14T02:48:26;5.60;;;3.07;;
16270;SDS011;8243;49.048;8.396;2024-02-14T02:50:52;5.07;;;3.10;;
16270;SDS011;8243;49.048;8.396;2024-02-14T02:53:18;3.63;;;2.87;;
16270;SDS011;8243;49.048;8.396;2024-02-14T02:55:44;4.63;;;2.80;;
16270;SDS011;8243;49.048;8.396;2024-02-14T02:58:10;4.53;;;3.20;;
16270;SDS011;8243;49.048;8.396;2024-02-14T03:00:36;4.63;;;3.37;;
16270;SDS011;8243;49.048;8.396;2024-02-14T03:03:02;5.97;;;3.33;;
16270;SDS011;8243;49.048;8.396;2024-02-14T03:05:30;5.87;;;3.20;;
16270;SDS011;8243;49.048;8.396;2024-02-14T03:07:58;3.93;;;2.90;;
16270;SDS011;8243;49.048;8.396;2024-02-14T03:10:24;6.87;;;3.03;;
16270;SDS011;8243;49.048;8.396;2024-02-14T03:12:52;4.23;;;3.30;;
16270;SDS011;8243;49.048;8.396;2024-02-14T03:15:18;7.47;;;3.37;;
16270;SDS011;8243;49.048;8.396;2024-02-14T03:17:45;5.00;;;3.17;;
16270;SDS011;8243;49.048;8.396;2024-02-14T03:20:11;4.23;;;2.90;;
16270;SDS011;8243;49.048;8.396;2024-02-14T03:22:40;5.93;;;2.90;;
16270;SDS011;8243;49.048;8.396;2024-02-14T03:25:19;4.03;;;3.00;;
16270;SDS011;8243;49.048;8.396;2024-02-14T03:27:45;3.93;;;2.70;;
16270;SDS011;8243;49.048;8.396;2024-02-14T03:30:14;4.57;;;2.73;;
16270;SDS011;8243;49.048;8.396;2024-02-14T03:32:41;4.27;;;2.57;;
16270;SDS011;8243;49.048;8.396;2024-02-14T03:35:07;5.13;;;2.80;;
16270;SDS011;8243;49.048;8.396;2024-02-14T03:37:37;4.57;;;2.70;;
16270;SDS011;8243;49.048;8.396;2024-02-14T03:40:04;4.37;;;2.93;;
16270;SDS011;8243;49.048;8.396;2024-02-14T03:42:31;4.43;;;2.80;;
16270;SDS011;8243;49.048;8.396;2024-02-14T03:44:57;7.70;;;2.60;;
16270;SDS011;8243;49.048;8.396;2024-02-14T03:47:28;3.20;;;2.30;;
16270;SDS011;8243;49.048;8.396;2024-02-14T03:49:54;4.10;;;2.60;;
16270;SDS011;8243;49.048;8.396;2024-02-14T03:52:20;2.70;;;2.47;;
16270;SDS011;8243;49.048;8.396;2024-02-14T03:54:47;3.50;;;2.50;;
16270;SDS011;8243;49.048;8.396;2024-02-14T03:57:13;3.57;;;2.27;;
16270;SDS011;8243;49.048;8.396;2024-02-14T03:59:46;4.93;;;2.20;;
16270;SDS011;8243;49.048;8.396;2024-02-14T04:04:43;3.07;;;2.10;;
16270;SDS011;8243;49.048;8.396;2024-02-14T04:07:09;5.50;;;2.70;;
16270;SDS011;8243;49.048;8.396;2024-02-14T04:09:34;4.63;;;2.57;;
16270;SDS011;8243;49.048;8.396;2024-02-14T04:12:00;5.07;;;2.77;;
16270;SDS011;8243;49.048;8.396;2024-02-14T04:14:26;3.40;;;2.50;;
16270;SDS011;8243;49.048;8.396;2024-02-14T04:16:52;3.97;;;2.37;;
16270;SDS011;8243;49.048;8.396;2024-02-14T04:19:19;4.37;;;2.60;;
16270;SDS011;8243;49.048;8.396;2024-02-14T04:21:47;7.40;;;3.00;;
16270;SDS011;8243;49.048;8.396;2024-02-14T04:24:13;3.47;;;2.50;;
16270;SDS011;8243;49.048;8.396;2024-02-14T04:26:39;3.50;;;2.10;;
16270;SDS011;8243;49.048;8.396;2024-02-14T04:29:05;4.80;;;2.90;;
16270;SDS011;8243;49.048;8.396;2024-02-14T04:31:30;3.63;;;2.73;;
16270;SDS011;8243;49.048;8.396;2024-02-14T04:33:57;4.33;;;2.67;;
16270;SDS011;8243;49.048;8.396;2024-02-14T04:36:23;3.60;;;2.53;;
16270;SDS011;8243;49.048;8.396;2024-02-14T04:38:48;4.03;;;2.50;;
16270;SDS011;8243;49.048;8.396;2024-02-14T04:41:15;3.30;;;2.33;;
16270;SDS011;8243;49.048;8.396;2024-02-14T04:43:41;6.13;;;2.60;;
16270;SDS011;8243;49.048;8.396;2024-02-14T04:46:06;4.27;;;2.47;;
16270;SDS011;8243;49.048;8.396;2024-02-14T04:48:33;7.00;;;2.33;;
16270;SDS011;8243;49.048;8.396;2024-02-14T04:50:59;5.37;;;2.37;;
16270;SDS011;8243;49.048;8.396;2024-02-14T04:53:25;5.73;;;2.23;;
16270;SDS011;8243;49.048;8.396;2024-02-14T04:55:51;4.13;;;2.13;;
16270;SDS011;8243;49.048;8.396;2024-02-14T04:58:16;3.13;;;1.87;;
16270;SDS011;8243;49.048;8.396;2024-02-14T05:00:42;4.70;;;1.90;;
16270;SDS011;8243;49.048;8.396;2024-02-14T05:03:07;4.57;;;2.07;;
16270;SDS011;8243;49.048;8.396;2024-02-14T05:05:35;4.10;;;1.83;;
16270;SDS011;8243;49.048;8.396;2024-02-14T05:08:14;2.47;;;1.67;;
16270;SDS011;8243;49.048;8.396;2024-02-14T05:10:40;2.40;;;1.60;;
16270;SDS011;8243;49.048;8.396;2024-02-14T05:13:06;2.83;;;1.80;;
16270;SDS011;8243;49.048;8.396;2024-02-14T05:15:32;6.60;;;1.90;;
16270;SDS011;8243;49.048;8.396;2024-02-14T05:18:00;2.83;;;1.77;;
16270;SDS011;8243;49.048;8.396;2024-02-14T05:20:25;4.07;;;1.57;;
16270;SDS011;8243;49.048;8.396;2024-02-14T05:22:51;4.20;;;1.60;;
16270;SDS011;8243;49.048;8.396;2024-02-14T05:25:16;2.60;;;1.60;;
16270;SDS011;8243;49.048;8.396;2024-02-14T05:27:43;3.77;;;1.80;;
16270;SDS011;8243;49.048;8.396;2024-02-14T05:30:11;3.73;;;1.43;;
16270;SDS011;8243;49.048;8.396;2024-02-14T05:32:37;3.07;;;1.50;;
16270;SDS011;8243;49.048;8.396;2024-02-14T05:35:04;3.07;;;1.80;;
16270;SDS011;8243;49.048;8.396;2024-02-14T05:37:31;2.70;;;1.40;;
16270;SDS011;8243;49.048;8.396;2024-02-14T05:39:57;4.80;;;1.73;;
16270;SDS011;8243;49.048;8.396;2024-02-14T05:42:22;6.53;;;1.87;;
16270;SDS011;8243;49.048;8.396;2024-02-14T05:44:48;2.73;;;1.70;;
16270;SDS011;8243;49.048;8.396;2024-02-14T05:47:14;2.33;;;1.30;;
16270;SDS011;8243;49.048;8.396;2024-02-14T05:49:40;4.23;;;1.40;;
16270;SDS011;8243;49.048;8.396;2024-02-14T05:52:06;1.87;;;1.20;;
16270;SDS011;8243;49.048;8.396;2024-02-14T05:54:32;3.13;;;1.70;;
16270;SDS011;8243;49.048;8.396;2024-02-14T05:56:58;3.97;;;1.90;;
16270;SDS011;8243;49.048;8.396;2024-02-14T05:59:23;3.53;;;1.80;;
16270;SDS011;8243;49.048;8.396;2024-02-14T06:01:49;2.77;;;1.63;;
16270;SDS011;8243;49.048;8.396;2024-02-14T06:04:16;5.27;;;1.73;;
16270;SDS011;8243;49.048;8.396;2024-02-14T06:06:41;2.97;;;1.53;;
16270;SDS011;8243;49.048;8.396;2024-02-14T06:09:07;4.97;;;1.97;;
16270;SDS011;8243;49.048;8.396;2024-02-14T06:11:36;4.50;;;1.50;;
16270;SDS011;8243;49.048;8.396;2024-02-14T06:14:04;3.53;;;1.87;;
16270;SDS011;8243;49.048;8.396;2024-02-14T06:16:33;3.70;;;1.83;;
16270;SDS011;8243;49.048;8.396;2024-02-14T06:18:59;2.93;;;1.53;;
16270;SDS011;8243;49.048;8.396;2024-02-14T06:21:25;5.27;;;1.80;;
16270;SDS011;8243;49.048;8.396;2024-02-14T06:23:51;3.43;;;1.70;;
16270;SDS011;8243;49.048;8.396;2024-02-14T06:26:17;3.97;;;1.87;;
16270;SDS011;8243;49.048;8.396;2024-02-14T06:28:42;3.07;;;1.70;;
16270;SDS011;8243;49.048;8.396;2024-02-14T06:31:09;2.67;;;1.67;;
16270;SDS011;8243;49.048;8.396;2024-02-14T06:33:35;3.77;;;1.77;;
16270;SDS011;8243;49.048;8.396;2024-02-14T06:36:01;2.40;;;1.60;;
16270;SDS011;8243;49.048;8.396;2024-02-14T06:38:28;2.77;;;1.60;;
16270;SDS011;8243;49.048;8.396;2024-02-14T06:40:53;5.57;;;1.70;;
16270;SDS011;8243;49.048;8.396;2024-02-14T06:43:19;6.10;;;1.80;;
16270;SDS011;8243;49.048;8.396;2024-02-14T06:45:44;6.63;;;1.87;;
16270;SDS011;8243;49.048;8.396;2024-02-14T06:48:10;2.60;;;1.87;;
16270;SDS011;8243;49.048;8.396;2024-02-14T06:50:36;3.53;;;1.97;;
16270;SDS011;8243;49.048;8.396;2024-02-14T06:53:01;4.57;;;2.10;;
16270;SDS011;8243;49.048;8.396;2024-02-14T06:55:27;5.97;;;2.00;;
16270;SDS011;8243;49.048;8.396;2024-02-14T06:57:53;5.67;;;1.90;;
16270;SDS011;8243;49.048;8.396;2024-02-14T07:00:19;3.73;;;2.23;;
16270;SDS011;8243;49.048;8.396;2024-02-14T07:02:45;2.17;;;1.77;;
16270;SDS011;8243;49.048;8.396;2024-02-14T07:05:13;3.03;;;1.77;;
16270;SDS011;8243;49.048;8.396;2024-02-14T07:07:39;7.03;;;2.10;;
16270;SDS011;8243;49.048;8.396;2024-02-14T07:10:06;3.43;;;1.80;;
16270;SDS011;8243;49.048;8.396;2024-02-14T07:12:35;4.97;;;1.70;;
16270;SDS011;8243;49.048;8.396;2024-02-14T07:15:07;3.90;;;1.90;;
16270;SDS011;8243;49.048;8.396;2024-02-14T07:17:33;4.10;;;1.93;;
16270;SDS011;8243;49.048;8.396;2024-02-14T07:20:01;3.13;;;1.77;;
16270;SDS011;8243;49.048;8.396;2024-02-14T07:22:27;3.90;;;1.80;;
16270;SDS011;8243;49.048;8.396;2024-02-14T07:24:52;5.87;;;2.13;;
16270;SDS011;8243;49.048;8.396;2024-02-14T07:27:18;7.13;;;2.20;;
16270;SDS011;8243;49.048;8.396;2024-02-14T07:29:45;4.37;;;2.10;;
16270;SDS011;8243;49.048;8.396;2024-02-14T07:32:11;3.90;;;2.17;;
16270;SDS011;8243;49.048;8.396;2024-02-14T07:34:39;2.90;;;1.70;;
16270;SDS011;8243;49.048;8.396;2024-02-14T07:37:05;4.03;;;2.00;;
16270;SDS011;8243;49.048;8.396;2024-02-14T07:39:31;4.20;;;1.93;;
16270;SDS011;8243;49.048;8.396;2024-02-14T07:41:56;3.77;;;2.53;;
16270;SDS011;8243;49.048;8.396;2024-02-14T07:44:22;3.23;;;1.93;;
16270;SDS011;8243;49.048;8.396;2024-02-14T07:46:51;4.87;;;2.50;;
16270;SDS011;8243;49.048;8.396;2024-02-14T07:49:17;5.73;;;2.37;;
16270;SDS011;8243;49.048;8.396;2024-02-14T07:51:44;6.23;;;2.50;;
16270;SDS011;8243;49.048;8.396;2024-02-14T07:54:10;4.63;;;1.90;;
16270;SDS011;8243;49.048;8.396;2024-02-14T07:56:35;2.90;;;2.07;;
16270;SDS011;8243;49.048;8.396;2024-02-14T07:59:01;4.23;;;2.63;;
16270;SDS011;8243;49.048;8.396;2024-02-14T08:01:27;5.03;;;2.13;;
16270;SDS011;8243;49.048;8.396;2024-02-14T08:03:53;5.13;;;2.80;;
16270;SDS011;8243;49.048;8.396;2024-02-14T08:06:19;5.73;;;2.77;;
16270;SDS011;8243;49.048;8.396;2024-02-14T08:08:45;4.87;;;2.20;;
16270;SDS011;8243;49.048;8.396;2024-02-14T08:11:10;2.80;;;2.17;;
16270;SDS011;8243;49.048;8.396;2024-02-14T08:13:36;6.07;;;2.20;;
16270;SDS011;8243;49.048;8.396;2024-02-14T08:16:04;4.87;;;2.17;;
16270;SDS011;8243;49.048;8.396;2024-02-14T08:18:30;3.30;;;2.20;;
16270;SDS011;8243;49.048;8.396;2024-02-14T08:20:56;8.23;;;2.70;;
16270;SDS011;8243;49.048;8.396;2024-02-14T08:23:21;4.10;;;2.50;;
16270;SDS011;8243;49.048;8.396;2024-02-14T08:25:47;4.03;;;1.83;;
16270;SDS011;8243;49.048;8.396;2024-02-14T08:28:14;6.60;;;2.10;;
16270;SDS011;8243;49.048;8.396;2024-02-14T08:30:40;5.77;;;2.57;;
16270;SDS011;8243;49.048;8.396;2024-02-14T08:33:05;6.23;;;1.93;;
16270;SDS011;8243;49.048;8.396;2024-02-14T08:35:32;3.47;;;2.00;;
16270;SDS011;8243;49.048;8.396;2024-02-14T08:37:58;4.10;;;1.90;;
16270;SDS011;8243;49.048;8.396;2024-02-14T08:40:24;2.97;;;2.00;;
16270;SDS011;8243;49.048;8.396;2024-02-14T08:42:49;3.63;;;1.90;;
16270;SDS011;8243;49.048;8.396;2024-02-14T08:45:15;5.33;;;2.00;;
16270;SDS011;8243;49.048;8.396;2024-02-14T08:47:43;4.03;;;2.30;;
16270;SDS011;8243;49.048;8.396;2024-02-14T08:50:09;3.70;;;1.70;;
16270;SDS011;8243;49.048;8.396;2024-02-14T08:52:34;3.73;;;1.87;;
16270;SDS011;8243;49.048;8.396;2024-02-14T08:55:02;5.53;;;2.20;;
16270;SDS011;8243;49.048;8.396;2024-02-14T08:57:29;3.53;;;1.83;;
16270;SDS011;8243;49.048;8.396;2024-02-14T08:59:56;4.57;;;1.93;;
16270;SDS011;8243;49.048;8.396;2024-02-14T09:02:22;3.37;;;2.30;;
16270;SDS011;8243;49.048;8.396;2024-02-14T09:04:47;3.73;;;1.93;;
16270;SDS011;8243;49.048;8.396;2024-02-14T09:07:13;3.70;;;2.20;;
16270;SDS011;8243;49.048;8.396;2024-02-14T09:09:39;3.90;;;2.50;;
16270;SDS011;8243;49.048;8.396;2024-02-14T09:12:04;4.37;;;2.33;;
16270;SDS011;8243;49.048;8.396;2024-02-14T09:14:30;6.83;;;2.40;;
16270;SDS011;8243;49.048;8.396;2024-02-14T09:16:56;4.33;;;2.00;;
16270;SDS011;8243;49.048;8.396;2024-02-14T09:19:23;4.50;;;2.10;;
16270;SDS011;8243;49.048;8.396;2024-02-14T09:21:50;3.17;;;1.83;;
16270;SDS011;8243;49.048;8.396;2024-02-14T09:24:15;5.13;;;1.90;;
16270;SDS011;8243;49.048;8.396;2024-02-14T09:26:41;3.33;;;1.97;;
16270;SDS011;8243;49.048;8.396;2024-02-14T09:29:08;3.47;;;2.13;;
16270;SDS011;8243;49.048;8.396;2024-02-14T09:31:35;3.17;;;1.87;;
16270;SDS011;8243;49.048;8.396;2024-02-14T09:34:01;5.80;;;2.07;;
16270;SDS011;8243;49.048;8.396;2024-02-14T09:36:27;3.40;;;2.00;;
16270;SDS011;8243;49.048;8.396;2024-02-14T09:38:53;4.97;;;2.47;;
16270;SDS011;8243;49.048;8.396;2024-02-14T09:41:36;3.07;;;1.77;;
16270;SDS011;8243;49.048;8.396;2024-02-14T09:44:03;5.13;;;2.30;;
16270;SDS011;8243;49.048;8.396;2024-02-14T09:46:28;3.53;;;1.97;;
16270;SDS011;8243;49.048;8.396;2024-02-14T09:48:58;4.67;;;2.03;;
16270;SDS011;8243;49.048;8.396;2024-02-14T09:51:26;2.60;;;1.53;;
16270;SDS011;8243;49.048;8.396;2024-02-14T09:53:54;4.30;;;2.00;;
16270;SDS011;8243;49.048;8.396;2024-02-14T09:56:19;2.90;;;1.80;;
16270;SDS011;8243;49.048;8.396;2024-02-14T09:58:47;2.77;;;2.00;;
16270;SDS011;8243;49.048;8.396;2024-02-14T10:01:21;3.43;;;1.80;;
16270;SDS011;8243;49.048;8.396;2024-02-14T10:03:49;2.87;;;2.00;;
16270;SDS011;8243;49.048;8.396;2024-02-14T10:06:18;3.53;;;1.70;;
16270;SDS011;8243;49.048;8.396;2024-02-14T10:08:47;3.53;;;1.90;;
16270;SDS011;8243;49.048;8.396;2024-02-14T10:11:16;2.40;;;1.67;;
16270;SDS011;8243;49.048;8.396;2024-02-14T10:13:48;4.17;;;1.80;;
16270;SDS011;8243;49.048;8.396;2024-02-14T10:16:16;2.60;;;1.80;;
16270;SDS011;8243;49.048;8.396;2024-02-14T10:18:43;3.93;;;1.70;;
16270;SDS011;8243;49.048;8.396;2024-02-14T10:21:14;5.00;;;1.80;;
16270;SDS011;8243;49.048;8.396;2024-02-14T10:23:42;3.83;;;2.20;;
16270;SDS011;8243;49.048;8.396;2024-02-14T10:26:08;4.93;;;2.20;;
16270;SDS011;8243;49.048;8.396;2024-02-14T10:28:34;3.70;;;2.47;;
16270;SDS011;8243;49.048;8.396;2024-02-14T10:31:00;5.93;;;2.30;;
16270;SDS011;8243;49.048;8.396;2024-02-14T10:33:27;4.13;;;1.93;;
16270;SDS011;8243;49.048;8.396;2024-02-14T10:35:54;3.53;;;1.70;;
16270;SDS011;8243;49.048;8.396;2024-02-14T10:38:22;2.47;;;1.70;;
16270;SDS011;8243;49.048;8.396;2024-02-14T10:40:49;4.07;;;2.50;;
16270;SDS011;8243;49.048;8.396;2024-02-14T10:43:16;5.80;;;2.23;;
16270;SDS011;8243;49.048;8.396;2024-02-14T10:45:41;2.70;;;2.00;;
16270;SDS011;8243;49.048;8.396;2024-02-14T10:48:10;3.30;;;2.30;;
16270;SDS011;8243;49.048;8.396;2024-02-14T10:50:36;3.27;;;2.13;;
16270;SDS011;8243;49.048;8.396;2024-02-14T10:53:14;3.77;;;1.90;;
16270;SDS011;8243;49.048;8.396;2024-02-14T10:55:45;2.93;;;2.00;;
16270;SDS011;8243;49.048;8.396;2024-02-14T10:58:13;2.93;;;2.03;;
16270;SDS011;8243;49.048;8.396;2024-02-14T11:00:41;3.50;;;2.20;;
16270;SDS011;8243;49.048;8.396;2024-02-14T11:03:08;5.20;;;2.53;;
16270;SDS011;8243;49.048;8.396;2024-02-14T11:05:44;4.53;;;3.00;;
16270;SDS011;8243;49.048;8.396;2024-02-14T11:08:14;5.93;;;2.30;;
16270;SDS011;8243;49.048;8.396;2024-02-14T11:10:43;4.57;;;2.93;;
16270;SDS011;8243;49.048;8.396;2024-02-14T11:13:17;3.67;;;2.80;;
16270;SDS011;8243;49.048;8.396;2024-02-14T11:15:46;2.83;;;2.00;;
16270;SDS011;8243;49.048;8.396;2024-02-14T11:18:12;3.03;;;2.23;;
16270;SDS011;8243;49.048;8.396;2024-02-14T11:20:37;5.03;;;3.10;;
16270;SDS011;8243;49.048;8.396;2024-02-14T11:23:05;3.90;;;2.70;;
16270;SDS011;8243;49.048;8.396;2024-02-14T11:25:36;3.33;;;2.60;;
16270;SDS011;8243;49.048;8.396;2024-02-14T11:28:23;2.87;;;2.20;;
16270;SDS011;8243;49.048;8.396;2024-02-14T11:30:50;4.40;;;2.50;;
16270;SDS011;8243;49.048;8.396;2024-02-14T11:33:23;4.40;;;2.70;;
16270;SDS011;8243;49.048;8.396;2024-02-14T11:35:49;2.67;;;1.90;;
16270;SDS011;8243;49.048;8.396;2024-02-14T11:38:19;2.73;;;1.87;;
16270;SDS011;8243;49.048;8.396;2024-02-14T11:40:45;7.03;;;1.87;;
16270;SDS011;8243;49.048;8.396;2024-02-14T11:43:20;1.90;;;1.50;;
16270;SDS011;8243;49.048;8.396;2024-02-14T11:45:46;3.13;;;2.00;;
16270;SDS011;8243;49.048;8.396;2024-02-14T11:48:14;2.30;;;1.80;;
16270;SDS011;8243;49.048;8.396;2024-02-14T11:50:42;1.70;;;1.60;;
16270;SDS011;8243;49.048;8.396;2024-02-14T11:53:12;2.67;;;1.90;;
16270;SDS011;8243;49.048;8.396;2024-02-14T11:55:41;1.90;;;1.70;;
16270;SDS011;8243;49.048;8.396;2024-02-14T11:58:10;1.73;;;1.60;;
16270;SDS011;8243;49.048;8.396;2024-02-14T12:00:38;2.93;;;1.70;;
16270;SDS011;8243;49.048;8.396;2024-02-14T12:03:09;4.53;;;2.60;;
16270;SDS011;8243;49.048;8.396;2024-02-14T12:05:43;3.87;;;3.13;;
16270;SDS011;8243;49.048;8.396;2024-02-14T12:08:12;4.47;;;2.17;;
16270;SDS011;8243;49.048;8.396;2024-02-14T12:10:38;2.97;;;1.60;;
16270;SDS011;8243;49.048;8.396;2024-02-14T12:13:12;2.80;;;1.50;;
16270;SDS011;8243;49.048;8.396;2024-02-14T12:15:39;2.30;;;1.70;;
16270;SDS011;8243;49.048;8.396;2024-02-14T12:18:05;2.43;;;1.40;;
16270;SDS011;8243;49.048;8.396;2024-02-14T12:20:31;1.83;;;1.60;;
16270;SDS011;8243;49.048;8.396;2024-02-14T12:22:58;1.97;;;1.50;;
16270;SDS011;8243;49.048;8.396;2024-02-14T12:25:24;2.50;;;1.87;;
16270;SDS011;8243;49.048;8.396;2024-02-14T12:27:51;2.90;;;1.73;;
16270;SDS011;8243;49.048;8.396;2024-02-14T12:30:17;2.83;;;1.60;;
16270;SDS011;8243;49.048;8.396;2024-02-14T12:32:46;1.70;;;1.60;;
16270;SDS011;8243;49.048;8.396;2024-02-14T12:35:23;1.63;;;1.40;;
16270;SDS011;8243;49.048;8.396;2024-02-14T12:37:48;2.43;;;1.10;;
16270;SDS011;8243;49.048;8.396;2024-02-14T12:40:14;1.73;;;1.50;;
16270;SDS011;8243;49.048;8.396;2024-02-14T12:42:39;3.77;;;1.50;;
16270;SDS011;8243;49.048;8.396;2024-02-14T12:45:05;1.50;;;1.40;;
16270;SDS011;8243;49.048;8.396;2024-02-14T12:47:32;2.13;;;1.40;;
16270;SDS011;8243;49.048;8.396;2024-02-14T12:49:59;1.93;;;1.27;;
16270;SDS011;8243;49.048;8.396;2024-02-14T12:52:26;1.80;;;1.40;;
16270;SDS011;8243;49.048;8.396;2024-02-14T12:54:52;2.53;;;1.30;;
16270;SDS011;8243;49.048;8.396;2024-02-14T12:57:18;1.80;;;1.20;;
16270;SDS011;8243;49.048;8.396;2024-02-14T12:59:46;2.83;;;2.33;;
16270;SDS011;8243;49.048;8.396;2024-02-14T13:02:11;2.57;;;1.47;;
16270;SDS011;8243;49.048;8.396;2024-02-14T13:04:37;2.17;;;1.57;;
16270;SDS011;8243;49.048;8.396;2024-02-14T13:07:03;2.57;;;1.30;;
16270;SDS011;8243;49.048;8.396;2024-02-14T13:09:29;1.67;;;1.47;;
16270;SDS011;8243;49.048;8.396;2024-02-14T13:11:55;2.10;;;1.47;;
16270;SDS011;8243;49.048;8.396;2024-02-14T13:14:22;2.23;;;1.40;;
16270;SDS011;8243;49.048;8.396;2024-02-14T13:16:48;3.33;;;1.80;;
16270;SDS011;8243;49.048;8.396;2024-02-14T13:19:13;1.97;;;1.37;;
16270;SDS011;8243;49.048;8.396;2024-02-14T13:21:39;2.40;;;1.50;;
16270;SDS011;8243;49.048;8.396;2024-02-14T13:24:06;1.80;;;1.30;;
16270;SDS011;8243;49.048;8.396;2024-02-14T13:26:33;2.13;;;1.30;;
16270;SDS011;8243;49.048;8.396;2024-02-14T13:28:59;2.67;;;1.40;;
16270;SDS011;8243;49.048;8.396;2024-02-14T13:31:25;2.43;;;1.60;;
16270;SDS011;8243;49.048;8.396;2024-02-14T13:33:51;2.47;;;1.60;;
16270;SDS011;8243;49.048;8.396;2024-02-14T13:36:17;1.53;;;1.20;;
16270;SDS011;8243;49.048;8.396;2024-02-14T13:38:42;1.50;;;1.40;;
16270;SDS011;8243;49.048;8.396;2024-02-14T13:41:09;1.60;;;1.50;;
16270;SDS011;8243;49.048;8.396;2024-02-14T13:43:37;1.80;;;1.70;;
16270;SDS011;8243;49.048;8.396;2024-02-14T13:46:03;3.97;;;1.53;;
16270;SDS011;8243;49.048;8.396;2024-02-14T13:48:28;2.40;;;1.80;;
16270;SDS011;8243;49.048;8.396;2024-02-14T13:50:54;2.27;;;1.50;;
16270;SDS011;8243;49.048;8.396;2024-02-14T13:53:19;1.73;;;1.43;;
16270;SDS011;8243;49.048;8.396;2024-02-14T13:55:47;1.93;;;1.30;;
16270;SDS011;8243;49.048;8.396;2024-02-14T13:58:13;2.00;;;1.40;;
16270;SDS011;8243;49.048;8.396;2024-02-14T14:00:41;1.50;;;1.40;;
16270;SDS011;8243;49.048;8.396;2024-02-14T14:03:07;1.30;;;1.20;;
16270;SDS011;8243;49.048;8.396;2024-02-14T14:05:33;1.23;;;1.13;;
16270;SDS011;8243;49.048;8.396;2024-02-14T14:07:58;1.57;;;1.13;;
16270;SDS011;8243;49.048;8.396;2024-02-14T14:10:26;1.10;;;1.07;;
16270;SDS011;8243;49.048;8.396;2024-02-14T14:12:52;1.60;;;1.20;;
16270;SDS011;8243;49.048;8.396;2024-02-14T14:15:18;2.33;;;1.20;;
16270;SDS011;8243;49.048;8.396;2024-02-14T14:17:44;2.83;;;1.43;;
16270;SDS011;8243;49.048;8.396;2024-02-14T14:20:10;3.53;;;1.47;;
16270;SDS011;8243;49.048;8.396;2024-02-14T14:22:35;3.20;;;1.40;;
16270;SDS011;8243;49.048;8.396;2024-02-14T14:25:02;3.43;;;1.63;;
16270;SDS011;8243;49.048;8.396;2024-02-14T14:27:30;2.43;;;1.60;;
16270;SDS011;8243;49.048;8.396;2024-02-14T14:29:56;2.50;;;1.67;;
16270;SDS011;8243;49.048;8.396;2024-02-14T14:32:21;1.80;;;1.50;;
16270;SDS011;8243;49.048;8.396;2024-02-14T14:34:47;1.40;;;1.30;;
16270;SDS011;8243;49.048;8.396;2024-02-14T14:37:13;4.90;;;1.30;;
16270;SDS011;8243;49.048;8.396;2024-02-14T14:39:39;3.00;;;1.50;;
16270;SDS011;8243;49.048;8.396;2024-02-14T14:42:04;3.00;;;1.57;;
16270;SDS011;8243;49.048;8.396;2024-02-14T14:44:32;2.63;;;1.70;;
16270;SDS011;8243;49.048;8.396;2024-02-14T14:46:59;3.20;;;1.60;;
16270;SDS011;8243;49.048;8.396;2024-02-14T14:49:25;2.87;;;2.20;;
16270;SDS011;8243;49.048;8.396;2024-02-14T14:51:51;2.53;;;1.90;;
16270;SDS011;8243;49.048;8.396;2024-02-14T14:54:16;3.33;;;2.00;;
16270;SDS011;8243;49.048;8.396;2024-02-14T14:56:42;2.40;;;2.00;;
16270;SDS011;8243;49.048;8.396;2024-02-14T14:59:08;2.37;;;1.57;;